Time;durP1;ratioP1;P1;durP2;ratioP2;P2;SDS_P1;SDS_P2;PMS_P1;PMS_P2;Temp;Humidity;BMP_temperature;BMP_pressure;BME280_temperature;BME280_humidity;BME280_pressure;Samples;Min_cycle;Max_cycle;Signal;HPM_P1;HPM_P2
2022/12/02 00:01:46;;;;;;;37.90;20.67;;;8.60;99.90;;;;;;5020785;28;20438;-92
2022/12/02 00:04:26;;;;;;;37.80;21.37;;;8.60;99.90;;;;;;5021735;28;20434;-91
2022/12/02 00:06:55;;;;;;;40.07;20.87;;;8.60;99.90;;;;;;5030378;28;20768;-91
2022/12/02 00:09:31;;;;;;;40.50;22.07;;;8.60;99.90;;;;;;4985916;28;20423;-90
2022/12/02 00:12:30;;;;;;;37.10;21.40;;;8.60;99.90;;;;;;4985943;28;20462;-91
2022/12/02 00:15:00;;;;;;;37.17;20.20;;;8.60;99.90;;;;;;5001799;28;20458;-90
2022/12/02 00:17:29;;;;;;;39.37;20.90;;;8.50;99.90;;;;;;4986562;28;20828;-90
2022/12/02 00:19:55;;;;;;;36.40;20.13;;;8.60;99.90;;;;;;5002336;28;20422;-91
2022/12/02 00:22:21;;;;;;;42.37;22.00;;;8.50;99.90;;;;;;5028442;28;20173;-90
2022/12/02 00:24:47;;;;;;;36.80;21.47;;;8.50;99.90;;;;;;5023688;28;20431;-90
2022/12/02 00:27:13;;;;;;;39.30;19.97;;;8.60;99.90;;;;;;5021362;28;20420;-89
2022/12/02 00:29:39;;;;;;;33.63;21.07;;;8.50;99.90;;;;;;5005679;28;20924;-90
2022/12/02 00:32:07;;;;;;;36.70;21.60;;;8.50;99.90;;;;;;5006207;28;20566;-91
2022/12/02 00:34:33;;;;;;;38.97;21.10;;;8.50;99.90;;;;;;5005106;28;20553;-89
2022/12/02 00:36:59;;;;;;;40.87;21.10;;;8.60;99.90;;;;;;5008203;28;20469;-90
2022/12/02 00:39:25;;;;;;;44.03;21.80;;;8.50;99.90;;;;;;5008269;28;20461;-90
2022/12/02 00:41:50;;;;;;;44.17;22.00;;;8.50;99.90;;;;;;5008697;28;20430;-90
2022/12/02 00:47:01;;;;;;;40.70;21.30;;;8.50;99.90;;;;;;4985466;28;20727;-90
2022/12/02 00:49:27;;;;;;;43.53;23.40;;;8.50;99.90;;;;;;5004087;28;20505;-90
2022/12/02 00:51:55;;;;;;;38.00;22.60;;;8.50;99.90;;;;;;5005113;28;20438;-90
2022/12/02 00:54:23;;;;;;;46.40;22.73;;;8.50;99.90;;;;;;4989025;28;20458;-90
2022/12/02 00:56:50;;;;;;;45.90;24.10;;;8.50;99.90;;;;;;5004688;28;20433;-89
2022/12/02 00:59:16;;;;;;;39.30;22.80;;;8.50;99.90;;;;;;5005109;28;20433;-90
2022/12/02 01:01:43;;;;;;;41.33;22.73;;;8.50;99.90;;;;;;5020746;28;20414;-90
2022/12/02 01:04:09;;;;;;;42.23;22.57;;;8.50;99.90;;;;;;5020883;28;20470;-90
2022/12/02 01:06:35;;;;;;;42.13;23.77;;;8.50;99.90;;;;;;4988599;28;20465;-90
2022/12/02 01:09:01;;;;;;;42.93;24.27;;;8.50;99.90;;;;;;5004652;28;20447;-90
2022/12/02 01:11:27;;;;;;;51.17;25.20;;;8.50;99.90;;;;;;5004750;28;20786;-89
2022/12/02 01:13:55;;;;;;;42.37;22.17;;;8.50;99.90;;;;;;5006164;28;20454;-90
2022/12/02 01:16:21;;;;;;;44.13;24.63;;;8.60;99.90;;;;;;5020425;28;20415;-90
2022/12/02 01:18:47;;;;;;;47.10;24.93;;;8.50;99.90;;;;;;4988284;28;21097;-90
2022/12/02 01:21:16;;;;;;;44.03;24.10;;;8.50;99.90;;;;;;5021000;28;20435;-90
2022/12/02 01:23:45;;;;;;;48.90;25.03;;;8.50;99.90;;;;;;5021152;28;20446;-90
2022/12/02 01:26:13;;;;;;;49.93;24.63;;;8.50;99.90;;;;;;5040311;28;20419;-90
2022/12/02 01:28:39;;;;;;;43.60;22.87;;;8.50;99.90;;;;;;5040154;28;20457;-90
2022/12/02 01:31:05;;;;;;;43.77;24.47;;;8.50;99.90;;;;;;5007219;28;20435;-88
2022/12/02 01:33:31;;;;;;;49.30;26.03;;;8.50;99.90;;;;;;5024891;28;20473;-89
2022/12/02 01:35:57;;;;;;;42.27;22.37;;;8.50;99.90;;;;;;5009137;28;20508;-91
2022/12/02 01:38:23;;;;;;;40.63;22.03;;;8.50;99.90;;;;;;5023925;28;20744;-90
2022/12/02 01:40:52;;;;;;;48.27;23.17;;;8.50;99.90;;;;;;5015033;28;20479;-90
2022/12/02 01:43:19;;;;;;;40.33;23.20;;;8.50;99.90;;;;;;4988057;28;20470;-90
2022/12/02 01:45:45;;;;;;;46.43;24.37;;;8.50;99.90;;;;;;5004130;28;20802;-89
2022/12/02 01:48:13;;;;;;;39.17;22.67;;;8.50;99.90;;;;;;4987847;28;20900;-90
2022/12/02 01:50:39;;;;;;;43.00;23.73;;;8.50;99.90;;;;;;5004112;28;20747;-90
2022/12/02 01:53:07;;;;;;;44.87;23.10;;;8.50;99.90;;;;;;5004017;28;20471;-89
2022/12/02 01:55:34;;;;;;;45.20;22.70;;;8.50;99.90;;;;;;5020041;28;20483;-90
2022/12/02 01:58:03;;;;;;;48.60;23.03;;;8.50;99.90;;;;;;5020030;28;20411;-90
2022/12/02 02:00:29;;;;;;;39.80;22.20;;;8.40;99.90;;;;;;4987523;28;20421;-89
2022/12/02 02:02:57;;;;;;;38.97;22.20;;;8.50;99.90;;;;;;5003712;28;20423;-90
2022/12/02 02:06:22;;;;;;;41.00;24.33;;;8.50;99.90;;;;;;5003499;28;20447;-90
2022/12/02 02:08:51;;;;;;;35.57;22.03;;;8.40;99.90;;;;;;5004659;28;20419;-88
2022/12/02 02:11:21;;;;;;;43.83;22.53;;;8.40;99.90;;;;;;4987135;28;20476;-90
2022/12/02 02:13:55;;;;;;;41.87;22.40;;;8.40;99.90;;;;;;5004352;28;20541;-90
2022/12/02 02:16:27;;;;;;;38.53;21.70;;;8.50;99.90;;;;;;4993277;28;20731;-90
2022/12/02 02:18:53;;;;;;;41.90;22.30;;;8.40;99.90;;;;;;5010777;28;20448;-88
2022/12/02 02:21:23;;;;;;;45.90;22.87;;;8.40;99.90;;;;;;4999814;28;20432;-90
2022/12/02 02:23:49;;;;;;;40.50;21.53;;;8.40;99.90;;;;;;4999793;28;20411;-90
2022/12/02 02:26:18;;;;;;;39.87;20.80;;;8.50;99.90;;;;;;5000186;28;20432;-90
2022/12/02 02:28:44;;;;;;;46.70;21.43;;;8.40;99.90;;;;;;4983373;28;20438;-90
2022/12/02 02:31:11;;;;;;;42.57;22.73;;;8.40;99.90;;;;;;5000036;28;20452;-90
2022/12/02 02:33:45;;;;;;;43.57;21.30;;;8.40;99.90;;;;;;5007284;28;20446;-89
2022/12/02 02:36:11;;;;;;;35.97;21.73;;;8.40;99.90;;;;;;4987078;28;20450;-90
2022/12/02 02:38:38;;;;;;;39.53;21.73;;;8.40;99.90;;;;;;5003157;28;20888;-90
2022/12/02 02:41:05;;;;;;;40.77;21.67;;;8.40;99.90;;;;;;5003194;28;20439;-90
2022/12/02 02:43:34;;;;;;;37.90;21.33;;;8.40;99.90;;;;;;5002731;28;20453;-90
2022/12/02 02:46:00;;;;;;;41.47;22.20;;;8.40;99.90;;;;;;4986817;28;20430;-90
2022/12/02 02:48:33;;;;;;;41.83;21.70;;;8.40;99.90;;;;;;5019332;28;20493;-90
2022/12/02 02:51:02;;;;;;;44.77;23.43;;;8.40;99.90;;;;;;4998443;28;20458;-90
2022/12/02 02:53:37;;;;;;;39.13;20.60;;;8.40;99.90;;;;;;5006466;28;20973;-90
2022/12/02 02:56:10;;;;;;;40.60;22.07;;;8.40;99.90;;;;;;5006112;28;20425;-89
2022/12/02 02:58:37;;;;;;;41.40;21.30;;;8.40;99.90;;;;;;5022306;28;20415;-90
2022/12/02 03:01:28;;;;;;;38.27;21.37;;;8.40;99.90;;;;;;5022612;28;20418;-88
2022/12/02 03:03:58;;;;;;;37.07;20.40;;;8.40;99.90;;;;;;5001472;28;20517;-90
2022/12/02 03:06:30;;;;;;;42.53;21.50;;;8.30;99.90;;;;;;4987731;28;20423;-90
2022/12/02 03:08:58;;;;;;;39.80;22.10;;;8.30;99.90;;;;;;5022230;28;20450;-90
2022/12/02 03:11:25;;;;;;;37.43;20.63;;;8.30;99.90;;;;;;5022010;28;20433;-90
2022/12/02 03:13:52;;;;;;;40.40;22.13;;;8.30;99.90;;;;;;5021945;28;20505;-90
2022/12/02 03:16:21;;;;;;;48.10;22.10;;;8.40;99.90;;;;;;5038331;28;20433;-90
2022/12/02 03:18:48;;;;;;;37.20;20.90;;;8.30;99.90;;;;;;5038420;28;20414;-90
2022/12/02 03:21:16;;;;;;;40.67;21.57;;;8.30;99.90;;;;;;5021952;28;20460;-90
2022/12/02 03:23:43;;;;;;;40.80;20.70;;;8.30;99.90;;;;;;5005716;28;20473;-90
2022/12/02 03:26:09;;;;;;;38.50;19.83;;;8.30;99.90;;;;;;4998867;28;20530;-90
2022/12/02 03:28:35;;;;;;;38.57;19.40;;;8.30;99.90;;;;;;4982702;28;20530;-90
2022/12/02 03:31:02;;;;;;;38.00;19.30;;;8.30;99.90;;;;;;4998796;28;20428;-90
2022/12/02 03:33:31;;;;;;;39.30;18.77;;;8.30;99.90;;;;;;4998885;28;20468;-90
2022/12/02 03:35:57;;;;;;;34.03;17.67;;;8.40;99.90;;;;;;5014669;28;20765;-90
2022/12/02 03:38:24;;;;;;;34.47;18.60;;;8.30;99.90;;;;;;4998785;28;20444;-89
2022/12/02 03:40:50;;;;;;;41.63;19.57;;;8.30;99.90;;;;;;4998354;28;20444;-90
2022/12/02 03:43:16;;;;;;;37.83;19.13;;;8.30;99.90;;;;;;4998817;28;20456;-90
2022/12/02 03:45:42;;;;;;;33.20;19.13;;;8.40;99.90;;;;;;4998886;28;20822;-90
2022/12/02 03:48:11;;;;;;;35.50;19.83;;;8.30;99.90;;;;;;4998502;28;20447;-90
2022/12/02 03:50:38;;;;;;;34.80;18.77;;;8.30;99.90;;;;;;4997529;28;20943;-90
2022/12/02 03:53:07;;;;;;;35.97;19.07;;;8.30;99.90;;;;;;5018194;28;20457;-89
2022/12/02 03:55:34;;;;;;;34.93;19.27;;;8.30;99.90;;;;;;5023548;28;20777;-88
2022/12/02 03:58:05;;;;;;;34.00;18.13;;;8.30;99.90;;;;;;5025732;28;20469;-90
2022/12/02 04:00:31;;;;;;;33.67;19.50;;;8.30;99.90;;;;;;5025512;28;20398;-90
2022/12/02 04:02:57;;;;;;;39.57;19.37;;;8.30;99.90;;;;;;5025850;28;20884;-90
2022/12/02 04:05:25;;;;;;;36.67;19.60;;;8.30;99.90;;;;;;5059234;28;20410;-90
2022/12/02 04:08:42;;;;;;;36.00;18.23;;;8.30;99.90;;;;;;5009025;28;20529;-91
2022/12/02 04:11:08;;;;;;;37.47;18.70;;;8.30;99.90;;;;;;5008962;28;20425;-90
2022/12/02 04:13:34;;;;;;;34.70;19.20;;;8.30;99.90;;;;;;5025134;28;20476;-90
2022/12/02 04:16:00;;;;;;;35.13;18.17;;;8.30;99.90;;;;;;5025084;28;20414;-89
2022/12/02 04:18:31;;;;;;;33.00;17.60;;;8.30;99.90;;;;;;4991485;28;20424;-89
2022/12/02 04:20:59;;;;;;;34.03;18.67;;;8.30;99.90;;;;;;4989412;28;20438;-90
2022/12/02 04:23:25;;;;;;;35.13;18.97;;;8.30;99.90;;;;;;4989569;28;20423;-90
2022/12/02 04:25:56;;;;;;;31.87;18.00;;;8.30;99.90;;;;;;4989936;28;20518;-90
2022/12/02 04:28:22;;;;;;;33.17;17.47;;;8.30;99.90;;;;;;4989450;28;20434;-90
2022/12/02 04:30:47;;;;;;;34.90;17.53;;;8.30;99.90;;;;;;4989489;28;20718;-90
2022/12/02 04:33:13;;;;;;;30.77;17.60;;;8.30;99.90;;;;;;5005147;28;20538;-90
2022/12/02 04:35:42;;;;;;;33.93;18.57;;;8.30;99.90;;;;;;5024896;28;20496;-89
2022/12/02 04:38:16;;;;;;;28.93;16.73;;;8.30;99.90;;;;;;5008591;28;20568;-91
2022/12/02 04:40:43;;;;;;;32.83;17.97;;;8.30;99.90;;;;;;5008396;28;20473;-90
2022/12/02 04:43:12;;;;;;;31.60;17.63;;;8.30;99.90;;;;;;5001835;28;20450;-90
2022/12/02 04:45:40;;;;;;;31.27;17.23;;;8.30;99.90;;;;;;5001867;28;20420;-89
2022/12/02 04:48:08;;;;;;;35.10;17.80;;;8.30;99.90;;;;;;5017919;28;20414;-90
2022/12/02 04:50:39;;;;;;;36.70;18.20;;;8.20;99.90;;;;;;4985878;28;20507;-90
2022/12/02 04:53:07;;;;;;;31.73;18.10;;;8.30;99.90;;;;;;4997102;28;20483;-90
2022/12/02 04:55:37;;;;;;;32.90;17.10;;;8.30;99.90;;;;;;4996831;28;20858;-90
2022/12/02 04:58:03;;;;;;;33.53;17.20;;;8.20;99.90;;;;;;5024667;28;20406;-89
2022/12/02 05:00:34;;;;;;;32.30;17.20;;;8.30;99.90;;;;;;5016781;28;20454;-90
2022/12/02 05:03:02;;;;;;;29.73;18.27;;;8.30;99.90;;;;;;5024458;28;21197;-90
2022/12/02 05:05:28;;;;;;;32.80;17.40;;;8.20;99.90;;;;;;5024370;28;20475;-90
2022/12/02 05:07:54;;;;;;;34.00;17.80;;;8.20;99.90;;;;;;5040337;28;20496;-89
2022/12/02 05:10:20;;;;;;;34.47;17.43;;;8.20;99.90;;;;;;5000718;28;20446;-90
2022/12/02 05:12:46;;;;;;;30.77;17.90;;;8.30;99.90;;;;;;4985102;28;20440;-90
2022/12/02 05:15:13;;;;;;;30.40;17.20;;;8.20;99.90;;;;;;5002932;28;20953;-90
2022/12/02 05:17:41;;;;;;;37.47;18.07;;;8.20;99.90;;;;;;5024599;28;20441;-90
2022/12/02 05:20:07;;;;;;;35.27;18.63;;;8.30;99.90;;;;;;5040700;28;20450;-89
2022/12/02 05:22:36;;;;;;;31.80;17.50;;;8.20;99.90;;;;;;5009044;28;20769;-89
2022/12/02 05:25:05;;;;;;;31.90;17.77;;;8.20;99.90;;;;;;5024325;28;20494;-90
2022/12/02 05:27:31;;;;;;;29.37;16.60;;;8.20;99.90;;;;;;5024001;28;20434;-89
2022/12/02 05:29:57;;;;;;;33.53;17.60;;;8.20;99.90;;;;;;5024038;28;20473;-90
2022/12/02 05:32:26;;;;;;;36.30;18.00;;;8.20;99.90;;;;;;5040407;28;20918;-90
2022/12/02 05:34:52;;;;;;;30.47;16.70;;;8.20;99.90;;;;;;5023273;28;20458;-89
2022/12/02 05:37:18;;;;;;;32.23;16.70;;;8.20;99.90;;;;;;5040104;28;20422;-90
2022/12/02 05:39:44;;;;;;;30.63;18.23;;;8.20;99.90;;;;;;5039323;28;20548;-89
2022/12/02 05:42:13;;;;;;;29.23;16.07;;;8.20;99.90;;;;;;4983145;28;20510;-91
2022/12/02 05:44:42;;;;;;;31.60;17.07;;;8.20;99.90;;;;;;5024215;28;20412;-90
2022/12/02 05:47:14;;;;;;;32.60;17.13;;;8.20;99.90;;;;;;5039914;28;20417;-90
2022/12/02 05:49:41;;;;;;;31.67;15.27;;;8.20;99.90;;;;;;5023798;28;20495;-89
2022/12/02 05:52:24;;;;;;;31.77;16.80;;;8.20;99.90;;;;;;5007040;28;20450;-89
2022/12/02 05:54:56;;;;;;;30.33;16.80;;;8.20;99.90;;;;;;5007274;28;20461;-90
2022/12/02 06:01:58;;;;;;;26.63;14.53;;;8.20;99.90;;;;;;5057653;28;20696;-89
2022/12/02 06:04:28;;;;;;;29.80;16.93;;;8.20;99.90;;;;;;5006486;28;20545;-89
2022/12/02 06:06:55;;;;;;;32.13;15.97;;;8.20;99.90;;;;;;5023619;28;20425;-89
2022/12/02 06:09:28;;;;;;;29.60;17.23;;;8.10;99.90;;;;;;5007068;28;20516;-90
2022/12/02 06:11:57;;;;;;;30.60;16.10;;;8.10;99.90;;;;;;5005830;28;20467;-90
2022/12/02 06:14:36;;;;;;;32.93;18.00;;;8.10;99.90;;;;;;5004267;28;20462;-90
2022/12/02 06:17:14;;;;;;;31.57;16.23;;;8.10;99.90;;;;;;4986938;28;20545;-90
2022/12/02 06:19:50;;;;;;;33.97;16.10;;;8.20;99.90;;;;;;4987406;28;20435;-91
2022/12/02 06:22:19;;;;;;;34.97;17.20;;;8.10;99.90;;;;;;5003893;28;20408;-90
2022/12/02 06:24:45;;;;;;;32.80;17.30;;;8.10;99.90;;;;;;5003626;28;20459;-90
2022/12/02 06:27:14;;;;;;;32.43;16.93;;;8.20;99.90;;;;;;4986938;28;20462;-88
2022/12/02 06:30:03;;;;;;;30.57;15.63;;;8.10;99.90;;;;;;4986883;28;20453;-90
2022/12/02 06:32:38;;;;;;;31.33;16.30;;;8.20;99.90;;;;;;4987024;28;20553;-89
2022/12/02 06:35:20;;;;;;;32.83;16.60;;;8.10;99.90;;;;;;4985891;28;20529;-87
2022/12/02 06:38:43;;;;;;;32.47;15.57;;;8.20;99.90;;;;;;5018681;28;20446;-89
2022/12/02 06:41:20;;;;;;;29.97;16.30;;;8.10;99.90;;;;;;5002046;28;20538;-89
2022/12/02 06:45:03;;;;;;;36.50;16.27;;;8.10;99.90;;;;;;5002073;28;20458;-87
2022/12/02 06:47:36;;;;;;;29.43;15.13;;;8.10;99.90;;;;;;5035008;28;20515;-89
2022/12/02 06:50:05;;;;;;;24.50;14.63;;;8.10;99.90;;;;;;5035709;28;20751;-88
2022/12/02 06:56:20;;;;;;;38.13;16.47;;;8.10;99.90;;;;;;5003073;28;20445;-91
2022/12/02 06:58:49;;;;;;;27.93;14.37;;;8.20;99.90;;;;;;5002391;28;20499;-89
2022/12/02 07:01:29;;;;;;;31.87;17.17;;;8.10;99.90;;;;;;5005215;28;20765;-89
2022/12/02 07:04:14;;;;;;;28.07;15.93;;;8.10;99.90;;;;;;5035708;28;20402;-87
2022/12/02 07:06:44;;;;;;;32.90;16.20;;;8.10;99.90;;;;;;5002473;28;20438;-89
2022/12/02 07:09:35;;;;;;;34.13;17.10;;;8.10;99.90;;;;;;5005428;28;20434;-87
2022/12/02 07:12:01;;;;;;;31.70;15.93;;;8.10;99.90;;;;;;5037045;28;20455;-90
2022/12/02 07:14:55;;;;;;;32.40;16.07;;;8.10;99.90;;;;;;5021643;28;20465;-90
2022/12/02 07:17:27;;;;;;;26.70;15.60;;;8.10;99.90;;;;;;5021749;28;20399;-90
2022/12/02 07:20:10;;;;;;;29.63;15.57;;;8.10;99.90;;;;;;5005749;28;20421;-91
2022/12/02 07:22:41;;;;;;;38.57;15.50;;;8.10;99.90;;;;;;5021828;28;20493;-90
2022/12/02 07:25:07;;;;;;;41.57;16.67;;;8.10;99.90;;;;;;5005398;28;20414;-89
2022/12/02 07:28:24;;;;;;;28.97;15.63;;;8.10;99.90;;;;;;5018931;28;20544;-91
2022/12/02 07:31:02;;;;;;;36.50;15.97;;;8.10;99.90;;;;;;4982926;28;20491;-90
2022/12/02 07:33:29;;;;;;;31.97;17.40;;;8.10;99.90;;;;;;5004050;28;20566;-90
2022/12/02 07:35:55;;;;;;;36.03;17.87;;;8.10;99.90;;;;;;5007550;28;20471;-89
2022/12/02 07:38:21;;;;;;;37.23;15.17;;;8.00;99.90;;;;;;5021671;28;20813;-88
2022/12/02 07:40:48;;;;;;;40.90;17.67;;;8.10;99.90;;;;;;5005369;28;20549;-89
2022/12/02 07:43:16;;;;;;;34.03;16.80;;;8.10;99.90;;;;;;5002685;28;20439;-90
2022/12/02 07:45:42;;;;;;;39.33;18.13;;;8.10;99.90;;;;;;5001718;28;20447;-90
2022/12/02 07:48:08;;;;;;;33.70;17.30;;;8.10;99.90;;;;;;4992997;28;20442;-88
2022/12/02 07:50:34;;;;;;;43.57;18.90;;;8.00;99.90;;;;;;5029608;28;20419;-90
2022/12/02 07:53:02;;;;;;;42.53;17.63;;;8.10;99.90;;;;;;4985441;28;20220;-89
2022/12/02 07:55:28;;;;;;;42.67;19.53;;;8.00;99.90;;;;;;5001125;28;20744;-89
2022/12/02 07:57:54;;;;;;;36.37;17.50;;;8.10;99.90;;;;;;4998916;28;20497;-91
2022/12/02 08:00:21;;;;;;;39.93;19.27;;;8.10;99.90;;;;;;4991549;28;20451;-90
2022/12/02 08:02:49;;;;;;;42.10;19.33;;;8.10;99.90;;;;;;5007350;28;20816;-89
2022/12/02 08:05:15;;;;;;;36.37;19.47;;;8.10;99.90;;;;;;4986206;28;20529;-90
2022/12/02 08:07:44;;;;;;;34.93;18.00;;;8.10;99.90;;;;;;4988864;28;20764;-91
2022/12/02 08:10:10;;;;;;;39.20;19.53;;;8.00;99.90;;;;;;5007992;28;20430;-90
2022/12/02 08:12:39;;;;;;;39.00;18.47;;;8.00;99.90;;;;;;5013711;28;20430;-90
2022/12/02 08:15:07;;;;;;;41.13;19.40;;;8.10;99.90;;;;;;5001540;28;20501;-91
2022/12/02 08:17:36;;;;;;;38.10;19.60;;;8.10;99.90;;;;;;4997096;28;20432;-88
2022/12/02 08:20:10;;;;;;;34.60;19.10;;;8.10;99.90;;;;;;5031039;28;20422;-88
2022/12/02 08:22:38;;;;;;;40.73;19.30;;;8.00;99.90;;;;;;5018029;28;20437;-89
2022/12/02 08:25:05;;;;;;;36.43;18.30;;;8.10;99.90;;;;;;5020836;28;20552;-90
2022/12/02 08:27:31;;;;;;;44.97;23.50;;;8.00;99.90;;;;;;5023009;28;20512;-95
2022/12/02 08:30:04;;;;;;;42.90;22.37;;;8.10;99.90;;;;;;4993663;28;20243;-94
2022/12/02 08:32:36;;;;;;;43.23;21.67;;;8.10;99.90;;;;;;4985534;28;20524;-96
2022/12/02 08:35:07;;;;;;;43.83;20.43;;;8.10;99.90;;;;;;4982929;28;20475;-96
2022/12/02 08:37:35;;;;;;;44.50;20.57;;;8.10;99.90;;;;;;4982789;28;20420;-94
2022/12/02 08:40:07;;;;;;;37.70;20.20;;;8.10;99.90;;;;;;4983341;28;20468;-96
2022/12/02 08:43:08;;;;;;;41.43;20.17;;;8.10;99.90;;;;;;5020230;28;20429;-94
2022/12/02 08:45:34;;;;;;;43.20;20.60;;;8.10;99.90;;;;;;5008938;28;20534;-93
2022/12/02 08:48:10;;;;;;;;;;;;;;;;;;;;;
2022/12/02 08:51:19;;;;;;;38.30;19.57;;;8.10;99.90;;;;;;5015979;28;20457;-94
2022/12/02 08:53:45;;;;;;;42.00;21.00;;;8.00;99.90;;;;;;4985472;28;20514;-95
2022/12/02 08:56:11;;;;;;;42.83;20.70;;;8.00;99.90;;;;;;5011587;28;20425;-94
2022/12/02 08:58:37;;;;;;;39.97;19.67;;;8.00;99.90;;;;;;5007922;28;20437;-95
2022/12/02 09:01:04;;;;;;;47.13;21.90;;;8.00;99.90;;;;;;4985582;28;20474;-92
2022/12/02 09:03:30;;;;;;;45.77;21.90;;;8.10;99.90;;;;;;4974100;28;20788;-93
2022/12/02 09:05:56;;;;;;;43.60;20.70;;;8.00;99.90;;;;;;5004729;28;20511;-93
2022/12/02 09:08:22;;;;;;;48.07;22.27;;;8.00;99.90;;;;;;5008751;28;20428;-94
2022/12/02 09:10:50;;;;;;;43.77;21.53;;;8.00;99.90;;;;;;5025166;28;20429;-95
2022/12/02 09:13:19;;;;;;;48.10;20.73;;;8.00;99.90;;;;;;5009882;28;20500;-96
2022/12/02 09:15:51;;;;;;;37.47;19.73;;;8.00;99.90;;;;;;5011188;28;20422;-95
2022/12/02 09:18:19;;;;;;;44.63;20.87;;;8.00;99.90;;;;;;5009489;28;20453;-93
2022/12/02 09:20:47;;;;;;;46.37;21.60;;;8.00;99.90;;;;;;5008635;28;20508;-94
2022/12/02 09:23:13;;;;;;;48.33;21.83;;;8.00;99.90;;;;;;5007981;28;20475;-94
2022/12/02 09:25:39;;;;;;;43.83;20.50;;;8.00;99.90;;;;;;5024750;28;20864;-93
2022/12/02 09:28:05;;;;;;;41.03;21.17;;;8.00;99.90;;;;;;5008057;28;20519;-94
2022/12/02 09:30:31;;;;;;;39.17;21.30;;;8.00;99.90;;;;;;5007955;28;20464;-93
2022/12/02 09:32:57;;;;;;;48.57;22.67;;;8.00;99.90;;;;;;5024407;28;20762;-95
2022/12/02 09:35:30;;;;;;;42.47;20.70;;;8.00;99.90;;;;;;5025275;28;20430;-93
2022/12/02 09:37:55;;;;;;;39.97;19.93;;;8.00;99.90;;;;;;5024107;28;20454;-93
2022/12/02 09:40:22;;;;;;;37.20;20.90;;;8.00;99.90;;;;;;5007979;28;20452;-94
2022/12/02 09:42:53;;;;;;;45.10;21.87;;;8.00;99.90;;;;;;5003807;28;20754;-92
2022/12/02 09:45:24;;;;;;;38.20;20.20;;;8.00;99.90;;;;;;4996936;28;20446;-92
2022/12/02 09:47:54;;;;;;;40.83;20.43;;;8.00;99.90;;;;;;5025680;28;20457;-95
2022/12/02 09:50:26;;;;;;;39.13;21.23;;;8.00;99.90;;;;;;5007105;28;20415;-93
2022/12/02 09:53:12;;;;;;;38.60;19.87;;;7.90;99.90;;;;;;5027810;28;20548;-96
2022/12/02 09:55:45;;;;;;;37.40;19.00;;;8.00;99.90;;;;;;5008930;28;20428;-92
2022/12/02 09:58:19;;;;;;;33.50;20.87;;;7.90;99.90;;;;;;5024471;28;20426;-94
2022/12/02 10:00:50;;;;;;;41.93;19.50;;;8.00;99.90;;;;;;5008561;28;20517;-96
2022/12/02 10:03:26;;;;;;;39.83;19.77;;;8.00;99.90;;;;;;5024778;28;20929;-94
2022/12/02 10:05:55;;;;;;;46.10;20.47;;;8.00;99.90;;;;;;5025222;28;20417;-92
2022/12/02 10:08:28;;;;;;;40.60;19.80;;;8.00;99.90;;;;;;5024529;28;20434;-95
2022/12/02 10:10:58;;;;;;;33.97;18.60;;;8.00;99.90;;;;;;5007735;28;20511;-93
2022/12/02 10:13:32;;;;;;;38.77;20.50;;;7.90;99.90;;;;;;5041162;28;20445;-95
2022/12/02 10:16:02;;;;;;;40.80;20.30;;;7.90;99.90;;;;;;5024168;28;20506;-94
2022/12/02 10:18:33;;;;;;;38.73;18.20;;;8.00;99.90;;;;;;5033059;28;20463;-92
2022/12/02 10:21:03;;;;;;;34.70;20.30;;;7.90;99.90;;;;;;5006217;28;20445;-94
2022/12/02 10:23:56;;;;;;;33.40;18.80;;;7.90;99.90;;;;;;5023082;28;20516;-95
2022/12/02 10:26:42;;;;;;;38.70;20.30;;;7.90;99.90;;;;;;4988063;28;20490;-92
2022/12/02 10:29:40;;;;;;;37.00;19.33;;;7.90;99.90;;;;;;5009450;28;20427;-95
2022/12/02 10:32:26;;;;;;;38.30;19.60;;;7.90;99.90;;;;;;5006185;28;20898;-95
2022/12/02 10:35:13;;;;;;;33.63;19.50;;;7.90;99.90;;;;;;4998388;28;20470;-95
2022/12/02 10:37:39;;;;;;;32.03;18.60;;;8.00;99.90;;;;;;5021984;28;20445;-96
2022/12/02 10:40:14;;;;;;;36.00;20.80;;;7.90;99.90;;;;;;4991531;28;20467;-94
2022/12/02 10:42:46;;;;;;;36.03;20.60;;;7.90;99.90;;;;;;5007660;28;20421;-95
2022/12/02 10:45:23;;;;;;;32.20;19.07;;;7.90;99.90;;;;;;5023822;28;20440;-94
2022/12/02 10:48:14;;;;;;;38.20;19.90;;;7.90;99.90;;;;;;4996667;28;20431;-94
2022/12/02 10:58:55;;;;;;;36.37;19.07;;;7.90;99.90;;;;;;5056742;22;20502;-73
2022/12/02 11:01:21;;;;;;;33.70;18.33;;;7.90;99.90;;;;;;4999184;28;20813;-73
2022/12/02 11:03:48;;;;;;;33.43;20.33;;;7.90;99.90;;;;;;5015108;28;20403;-73
2022/12/02 11:06:20;;;;;;;28.20;18.03;;;7.90;99.90;;;;;;5033348;28;20438;-73
2022/12/02 11:08:48;;;;;;;32.17;19.57;;;7.90;99.90;;;;;;4999746;28;20445;-73
2022/12/02 11:11:34;;;;;;;32.77;19.37;;;7.90;99.90;;;;;;5015821;28;20438;-73
2022/12/02 11:14:03;;;;;;;29.10;17.80;;;7.90;99.90;;;;;;4999182;28;20520;-73
2022/12/02 11:16:36;;;;;;;32.97;18.67;;;7.90;99.90;;;;;;4999671;28;20511;-73
2022/12/02 11:19:39;;;;;;;33.13;19.30;;;7.90;99.90;;;;;;5033337;28;20452;-73
2022/12/02 11:22:44;;;;;;;38.40;20.90;;;7.90;99.90;;;;;;5014480;28;20445;-73
2022/12/02 11:25:41;;;;;;;31.00;18.77;;;7.90;99.90;;;;;;4999090;28;20967;-73
2022/12/02 11:28:28;;;;;;;30.43;17.70;;;7.90;99.90;;;;;;4999614;28;20431;-74
2022/12/02 11:31:13;;;;;;;34.43;19.80;;;7.90;99.90;;;;;;4983085;28;20454;-73
2022/12/02 11:33:48;;;;;;;33.03;18.97;;;7.90;99.90;;;;;;5015690;28;21038;-73
2022/12/02 11:36:25;;;;;;;34.03;20.00;;;7.90;99.90;;;;;;5033256;28;20406;-73
2022/12/02 11:38:51;;;;;;;30.40;19.93;;;7.90;99.90;;;;;;4983171;28;20422;-73
2022/12/02 11:41:19;;;;;;;32.73;18.80;;;7.90;99.90;;;;;;4983312;28;20447;-73
2022/12/02 11:43:51;;;;;;;36.50;20.00;;;7.90;99.90;;;;;;5015261;28;20437;-73
2022/12/02 11:46:37;;;;;;;32.60;18.00;;;7.90;99.90;;;;;;5015464;28;20411;-73
2022/12/02 11:49:20;;;;;;;35.30;19.57;;;7.90;99.90;;;;;;4999277;28;20434;-73
2022/12/02 11:51:46;;;;;;;29.97;19.17;;;7.90;99.90;;;;;;4999878;28;20459;-72
2022/12/02 11:54:14;;;;;;;32.83;19.23;;;7.90;99.90;;;;;;4995569;28;20875;-74
2022/12/02 11:56:42;;;;;;;33.30;19.30;;;7.90;99.90;;;;;;5008238;28;20854;-74
2022/12/02 11:59:29;;;;;;;30.83;18.80;;;7.90;99.90;;;;;;5032103;28;20407;-73
2022/12/02 12:02:15;;;;;;;37.70;18.97;;;7.90;99.90;;;;;;4998265;28;20486;-73
2022/12/02 12:04:44;;;;;;;37.50;20.50;;;7.90;99.90;;;;;;5020847;28;20471;-74
2022/12/02 12:07:12;;;;;;;33.40;19.87;;;7.90;99.90;;;;;;4995648;28;20432;-74
2022/12/02 12:09:38;;;;;;;33.23;19.03;;;7.90;99.90;;;;;;4995692;28;20448;-73
2022/12/02 12:12:11;;;;;;;33.60;20.37;;;7.90;99.90;;;;;;5014889;28;20439;-75
2022/12/02 12:15:03;;;;;;;33.53;18.80;;;7.90;99.90;;;;;;4972968;28;20452;-78
2022/12/02 12:17:31;;;;;;;34.63;20.63;;;7.90;99.90;;;;;;5009616;28;20396;-78
2022/12/02 12:19:57;;;;;;;39.50;21.03;;;7.90;99.90;;;;;;5027950;28;20396;-78
2022/12/02 12:22:26;;;;;;;36.63;20.60;;;7.90;99.90;;;;;;4973156;28;20465;-77
2022/12/02 12:25:35;;;;;;;39.20;21.93;;;7.90;99.90;;;;;;5002432;28;20785;-77
2022/12/02 12:28:02;;;;;;;39.43;20.60;;;7.90;99.90;;;;;;5018539;28;20410;-74
2022/12/02 12:30:28;;;;;;;39.63;22.00;;;7.90;99.90;;;;;;5020261;28;20443;-77
2022/12/02 12:32:56;;;;;;;38.00;22.57;;;7.90;99.90;;;;;;5004945;28;20396;-77
2022/12/02 12:35:22;;;;;;;37.80;22.03;;;7.90;99.90;;;;;;5015306;28;20509;-77
2022/12/02 12:37:52;;;;;;;34.33;20.43;;;7.90;99.90;;;;;;4987969;28;20423;-74
2022/12/02 12:40:19;;;;;;;40.27;22.47;;;7.90;99.90;;;;;;5012443;28;20451;-74
2022/12/02 12:42:45;;;;;;;37.40;22.57;;;7.90;99.90;;;;;;5007744;28;20453;-75
2022/12/02 12:45:14;;;;;;;42.03;23.30;;;7.90;99.90;;;;;;4999518;28;20399;-74
2022/12/02 12:47:40;;;;;;;38.97;22.13;;;7.90;99.90;;;;;;5018242;28;20444;-74
2022/12/02 12:50:09;;;;;;;37.30;21.70;;;7.90;99.90;;;;;;5001643;28;20465;-74
2022/12/02 12:52:35;;;;;;;39.10;22.87;;;7.90;99.90;;;;;;5035631;28;20899;-74
2022/12/02 12:55:04;;;;;;;41.60;22.47;;;7.90;99.90;;;;;;5033318;28;20450;-74
2022/12/02 12:57:32;;;;;;;37.53;23.90;;;7.90;99.90;;;;;;5018665;28;20449;-74
2022/12/02 12:59:58;;;;;;;37.43;22.77;;;7.90;99.90;;;;;;4999929;28;20443;-74
2022/12/02 13:02:25;;;;;;;37.27;22.10;;;7.90;99.90;;;;;;4983626;28;20513;-75
2022/12/02 13:04:51;;;;;;;43.50;22.43;;;7.90;99.90;;;;;;4985117;28;20929;-74
2022/12/02 13:07:17;;;;;;;38.37;22.90;;;7.90;99.90;;;;;;5013052;28;20493;-74
2022/12/02 13:09:43;;;;;;;44.77;22.70;;;7.90;99.90;;;;;;5003141;28;20458;-74
2022/12/02 13:12:09;;;;;;;35.50;21.70;;;7.90;99.90;;;;;;5014409;28;20451;-74
2022/12/02 13:14:35;;;;;;;36.60;20.67;;;7.90;99.90;;;;;;4991769;28;20461;-74
2022/12/02 13:17:01;;;;;;;37.80;23.00;;;7.90;99.90;;;;;;5018815;28;20442;-74
2022/12/02 13:19:27;;;;;;;36.97;22.43;;;7.90;99.90;;;;;;5001827;28;20442;-74